Time;durP1;ratioP1;P1;durP2;ratioP2;P2;SDS_P1;SDS_P2;PMS_P1;PMS_P2;Temp;Humidity;BMP_temperature;BMP_pressure;BME280_temperature;BME280_humidity;BME280_pressure;Samples;Min_cycle;Max_cycle;Signal;HPM_P1;HPM_P2
2022/12/25 00:00:34;;;;;;;126.82;27.20;;;3.80;99.90;;;;;;5047152;28;20084;-43
2022/12/25 00:03:00;;;;;;;102.20;26.60;;;3.80;99.90;;;;;;5046902;28;20676;-43
2022/12/25 00:05:26;;;;;;;127.30;27.83;;;3.80;99.90;;;;;;5046955;28;20048;-44
2022/12/25 00:07:51;;;;;;;132.90;29.42;;;3.90;99.90;;;;;;5047237;28;20052;-43
2022/12/25 00:10:17;;;;;;;108.70;28.58;;;3.90;99.90;;;;;;5047352;28;20084;-43
2022/12/25 00:12:43;;;;;;;110.63;28.38;;;3.90;99.90;;;;;;5047356;28;20052;-43
2022/12/25 00:15:09;;;;;;;121.18;30.25;;;3.80;99.90;;;;;;5047232;28;20051;-43
2022/12/25 00:17:35;;;;;;;116.38;28.13;;;4.00;99.90;;;;;;5046349;28;20128;-43
2022/12/25 00:20:01;;;;;;;116.18;29.13;;;3.90;99.90;;;;;;5046474;28;20955;-43
2022/12/25 00:22:26;;;;;;;109.63;26.38;;;3.80;99.90;;;;;;5046747;28;20094;-44
2022/12/25 00:24:52;;;;;;;95.47;25.52;;;3.70;99.90;;;;;;5046830;28;20037;-43
2022/12/25 00:27:18;;;;;;;92.72;25.63;;;3.90;99.90;;;;;;5046331;28;20040;-43
2022/12/25 00:29:43;;;;;;;93.15;25.92;;;4.00;99.90;;;;;;5046310;28;20108;-43
2022/12/25 00:32:09;;;;;;;102.03;25.30;;;3.90;99.90;;;;;;5046570;28;20044;-44
2022/12/25 00:34:35;;;;;;;88.78;24.98;;;3.90;99.90;;;;;;5046132;28;20497;-43
2022/12/25 00:37:00;;;;;;;117.30;27.75;;;3.90;99.90;;;;;;5046257;28;20485;-44
2022/12/25 00:39:26;;;;;;;87.75;25.73;;;3.90;99.90;;;;;;5046581;28;20036;-43
2022/12/25 00:44:36;;;;;;;107.80;28.27;;;4.10;99.90;;;;;;5046741;28;20740;-44
2022/12/25 00:47:02;;;;;;;100.05;25.98;;;3.90;99.90;;;;;;5046684;28;20041;-43
2022/12/25 00:49:28;;;;;;;99.28;25.80;;;4.10;99.90;;;;;;5046855;28;20048;-44
2022/12/25 00:51:53;;;;;;;121.82;27.90;;;4.60;99.90;;;;;;5046236;28;20057;-44
2022/12/25 00:54:19;;;;;;;97.93;25.85;;;4.10;99.90;;;;;;5046736;28;20047;-45
2022/12/25 00:56:46;;;;;;;93.80;23.48;;;4.10;99.90;;;;;;5044790;28;20045;-44
2022/12/25 00:59:12;;;;;;;134.75;28.00;;;4.10;99.90;;;;;;5046296;28;20037;-44
2022/12/25 01:01:38;;;;;;;79.63;21.50;;;4.10;99.90;;;;;;5046046;28;20387;-43
2022/12/25 01:04:04;;;;;;;127.47;27.50;;;4.20;99.90;;;;;;5046266;28;20053;-44
2022/12/25 01:06:30;;;;;;;106.55;23.52;;;4.20;99.90;;;;;;5046131;28;20586;-44
2022/12/25 01:11:40;;;;;;;90.60;25.45;;;4.10;99.90;;;;;;5046050;28;20083;-44
2022/12/25 01:14:06;;;;;;;84.70;22.70;;;4.00;99.90;;;;;;5046283;28;20040;-43
2022/12/25 01:16:32;;;;;;;95.78;25.25;;;4.00;99.90;;;;;;5049225;28;20049;-43
2022/12/25 01:18:57;;;;;;;101.60;24.55;;;4.10;99.90;;;;;;5050152;28;20053;-44
2022/12/25 01:21:23;;;;;;;122.95;26.95;;;4.10;99.90;;;;;;5049704;28;20410;-43
2022/12/25 01:23:51;;;;;;;108.50;26.08;;;4.10;99.90;;;;;;5050365;28;20041;-45
2022/12/25 01:26:18;;;;;;;96.03;24.27;;;4.00;99.90;;;;;;5050244;28;20040;-45
2022/12/25 01:28:44;;;;;;;74.00;21.27;;;4.00;99.90;;;;;;5050717;28;20045;-44
2022/12/25 01:31:12;;;;;;;96.53;23.20;;;4.10;99.90;;;;;;5050301;28;20071;-44
2022/12/25 01:33:40;;;;;;;107.03;25.50;;;4.10;99.90;;;;;;5049803;28;20067;-44
2022/12/25 01:36:18;;;;;;;102.63;25.55;;;4.00;99.90;;;;;;5049641;28;20041;-44
2022/12/25 01:38:44;;;;;;;110.65;24.77;;;4.20;99.90;;;;;;5049806;28;20040;-44
2022/12/25 01:41:11;;;;;;;98.78;24.77;;;4.00;99.90;;;;;;5050117;28;20484;-44
2022/12/25 01:44:18;;;;;;;106.82;26.88;;;4.00;99.90;;;;;;5050069;28;20124;-43
2022/12/25 01:46:43;;;;;;;98.72;26.60;;;4.30;99.90;;;;;;5039068;28;20049;-43
2022/12/25 01:49:17;;;;;;;82.65;22.92;;;4.10;99.90;;;;;;5049851;28;20063;-44
2022/12/25 01:51:46;;;;;;;138.20;28.63;;;4.20;99.90;;;;;;5049819;28;20055;-44
2022/12/25 01:54:21;;;;;;;125.68;27.85;;;4.40;99.90;;;;;;5049689;28;20048;-43
2022/12/25 01:56:50;;;;;;;94.47;25.80;;;4.30;99.90;;;;;;5049971;28;20497;-43
2022/12/25 01:59:20;;;;;;;93.68;25.10;;;4.50;99.90;;;;;;5049969;28;20052;-45
2022/12/25 02:01:47;;;;;;;101.80;27.67;;;4.70;99.90;;;;;;5050109;28;20162;-44
2022/12/25 02:04:38;;;;;;;114.68;28.10;;;2.90;99.90;;;;;;5048039;28;20107;-44
2022/12/25 02:07:13;;;;;;;105.80;27.50;;;4.70;99.90;;;;;;5038241;28;20079;-44
2022/12/25 02:09:39;;;;;;;114.30;28.00;;;4.80;99.90;;;;;;5049667;28;20375;-43
2022/12/25 02:12:06;;;;;;;98.72;29.77;;;4.90;99.90;;;;;;5049550;28;20040;-44
2022/12/25 02:14:34;;;;;;;97.93;25.67;;;5.10;99.90;;;;;;5049684;28;20060;-44
2022/12/25 02:17:34;;;;;;;105.50;26.83;;;4.90;99.90;;;;;;5048592;28;20112;-44
2022/12/25 02:20:35;;;;;;;99.82;27.00;;;5.20;99.90;;;;;;5049430;28;20040;-46
2022/12/25 02:23:31;;;;;;;99.00;27.38;;;5.30;99.90;;;;;;5048897;28;20128;-45
2022/12/25 02:26:40;;;;;;;132.27;28.60;;;5.20;99.90;;;;;;5047398;28;20083;-44
2022/12/25 02:29:14;;;;;;;121.63;28.27;;;5.30;99.90;;;;;;5048724;28;20047;-43
2022/12/25 02:32:01;;;;;;;111.35;28.17;;;5.40;99.90;;;;;;5049389;28;20103;-44
2022/12/25 02:35:02;;;;;;;114.40;28.38;;;5.40;99.90;;;;;;5049046;28;20088;-44
2022/12/25 02:37:54;;;;;;;84.57;24.40;;;5.50;99.90;;;;;;5048996;28;20099;-43
2022/12/25 02:40:49;;;;;;;109.53;28.75;;;5.50;99.90;;;;;;5047152;28;20407;-43
2022/12/25 03:08:39;;;;;;;91.63;26.20;;;6.50;99.90;;;;;;5047525;28;20064;-44
2022/12/25 03:16:49;;;;;;;79.00;23.08;;;5.70;99.90;;;;;;5048257;28;20064;-43
2022/12/25 03:16:49;;;;;;;103.93;27.15;;;6.00;99.90;;;;;;5047789;28;20045;-45
2022/12/25 03:27:43;;;;;;;93.43;23.90;;;6.60;99.90;;;;;;5047914;28;20044;-43
2022/12/25 03:33:19;;;;;;;93.53;26.27;;;6.10;99.90;;;;;;5047508;28;20932;-44
2022/12/25 03:36:04;;;;;;;99.68;26.20;;;6.20;99.90;;;;;;5046620;28;20049;-43
2022/12/25 03:48:06;;;;;;;147.63;34.03;;;6.20;99.90;;;;;;5047006;28;20049;-46
2022/12/25 04:37:22;;;;;;;117.05;32.90;;;6.30;99.90;;;;;;5047418;28;20049;-44
2022/12/25 04:39:47;;;;;;;110.57;32.88;;;7.00;99.90;;;;;;5047168;28;20036;-44
2022/12/25 04:42:14;;;;;;;105.55;28.35;;;6.40;99.90;;;;;;5047064;28;20048;-45
2022/12/25 04:44:39;;;;;;;107.22;30.73;;;6.70;99.90;;;;;;5047096;28;20137;-44
2022/12/25 04:47:05;;;;;;;112.70;29.05;;;6.60;99.90;;;;;;5047121;28;20495;-44
2022/12/25 04:49:31;;;;;;;98.97;27.35;;;6.90;99.90;;;;;;5046487;28;20068;-43
2022/12/25 04:51:56;;;;;;;112.35;31.40;;;7.30;99.90;;;;;;5046887;28;20041;-45
2022/12/25 04:54:22;;;;;;;92.78;28.65;;;7.70;99.90;;;;;;5046795;28;20048;-44
2022/12/25 04:56:48;;;;;;;120.25;31.23;;;7.10;99.90;;;;;;5046889;28;20052;-44
2022/12/25 04:59:13;;;;;;;101.07;28.95;;;6.80;99.90;;;;;;5047103;28;20563;-43
2022/12/25 05:01:39;;;;;;;115.45;29.83;;;6.80;99.90;;;;;;5046719;28;20045;-43
2022/12/25 05:04:05;;;;;;;95.78;29.38;;;7.20;99.90;;;;;;5047232;28;20036;-44
2022/12/25 05:06:31;;;;;;;122.55;32.42;;;7.30;99.90;;;;;;5047152;28;20051;-44
2022/12/25 05:08:57;;;;;;;104.70;28.73;;;7.20;99.90;;;;;;5046732;28;20052;-43
2022/12/25 05:11:22;;;;;;;102.72;29.70;;;7.30;99.90;;;;;;5047073;28;20051;-45
2022/12/25 05:13:48;;;;;;;87.65;27.67;;;6.80;99.90;;;;;;5045380;28;20048;-43
2022/12/25 05:16:18;;;;;;;113.57;30.77;;;6.90;99.90;;;;;;5046648;28;20409;-43
2022/12/25 05:18:44;;;;;;;125.30;34.60;;;7.10;99.90;;;;;;5046502;28;20048;-44
2022/12/25 05:21:12;;;;;;;99.90;31.70;;;7.10;99.90;;;;;;5046559;28;20047;-44
2022/12/25 05:23:47;;;;;;;108.88;32.78;;;7.10;99.90;;;;;;5046384;28;20231;-44
2022/12/25 05:26:14;;;;;;;113.35;30.55;;;7.00;99.90;;;;;;5046697;28;20140;-43
2022/12/25 05:28:40;;;;;;;112.65;32.97;;;8.00;99.90;;;;;;5044625;28;20041;-43
2022/12/25 05:31:05;;;;;;;120.65;32.55;;;6.80;99.90;;;;;;5046555;28;20041;-44
2022/12/25 05:33:31;;;;;;;114.00;32.25;;;7.90;99.90;;;;;;5045756;28;20041;-44
2022/12/25 05:35:57;;;;;;;130.18;33.90;;;7.10;99.90;;;;;;5045622;28;20134;-44
2022/12/25 05:38:23;;;;;;;100.03;31.30;;;7.00;99.90;;;;;;5046059;28;20060;-44
2022/12/25 05:40:50;;;;;;;146.65;35.95;;;7.10;99.90;;;;;;5046264;28;20543;-44
2022/12/25 05:43:18;;;;;;;123.78;33.05;;;7.20;99.90;;;;;;5046454;28;20184;-44
2022/12/25 05:45:43;;;;;;;115.53;32.33;;;6.90;99.90;;;;;;5046357;28;20037;-44
2022/12/25 05:48:09;;;;;;;119.63;32.83;;;7.30;99.90;;;;;;5046234;28;20401;-44
2022/12/25 05:50:36;;;;;;;126.03;33.55;;;7.20;99.90;;;;;;5045995;28;20045;-45
2022/12/25 05:53:04;;;;;;;103.78;33.63;;;7.10;99.90;;;;;;5045753;28;20052;-43
2022/12/25 05:55:29;;;;;;;138.13;35.35;;;7.60;99.90;;;;;;5045891;28;20079;-44
2022/12/25 05:57:56;;;;;;;132.68;37.15;;;7.40;99.90;;;;;;5045774;28;20072;-44
2022/12/25 06:00:22;;;;;;;125.40;33.40;;;7.70;99.90;;;;;;5045943;28;20059;-44
2022/12/25 06:02:47;;;;;;;121.28;32.33;;;7.30;99.90;;;;;;5049244;28;20506;-43
2022/12/25 06:05:13;;;;;;;124.70;33.75;;;7.40;99.90;;;;;;5050020;28;20228;-43
2022/12/25 06:07:39;;;;;;;119.28;32.92;;;7.40;99.90;;;;;;5049535;28;20650;-43
2022/12/25 06:10:05;;;;;;;116.65;33.47;;;7.40;99.90;;;;;;5049551;28;20045;-44
2022/12/25 06:12:31;;;;;;;106.07;31.65;;;7.40;99.90;;;;;;5049670;28;20053;-44
2022/12/25 06:14:57;;;;;;;115.03;34.05;;;7.60;99.90;;;;;;5049284;28;20048;-43
2022/12/25 06:17:24;;;;;;;107.13;31.20;;;7.80;99.90;;;;;;5049519;28;20080;-43
2022/12/25 06:19:50;;;;;;;109.63;32.40;;;7.50;99.90;;;;;;5049386;28;20421;-44
2022/12/25 06:22:16;;;;;;;101.45;32.45;;;8.30;99.90;;;;;;5049093;28;20090;-44
2022/12/25 06:24:41;;;;;;;135.32;34.72;;;7.50;99.90;;;;;;5048814;28;20636;-43
2022/12/25 06:27:07;;;;;;;109.82;32.30;;;7.80;99.90;;;;;;5048967;28;20546;-44
2022/12/25 06:29:33;;;;;;;170.13;36.72;;;7.60;99.90;;;;;;5048604;28;20281;-44
2022/12/25 06:31:58;;;;;;;128.48;35.80;;;8.20;99.90;;;;;;5048572;28;20047;-43
2022/12/25 06:34:24;;;;;;;141.73;35.22;;;7.60;99.90;;;;;;5048411;28;20045;-43
2022/12/25 06:36:50;;;;;;;146.35;35.45;;;7.60;99.90;;;;;;5048618;28;20507;-44
2022/12/25 06:39:16;;;;;;;109.82;32.17;;;7.60;99.90;;;;;;5048935;28;20049;-43
2022/12/25 06:41:41;;;;;;;126.57;34.58;;;7.60;99.90;;;;;;5048055;28;20053;-43
2022/12/25 06:44:08;;;;;;;105.65;32.33;;;7.40;99.90;;;;;;5048407;28;20051;-44
2022/12/25 06:46:34;;;;;;;130.18;33.65;;;8.00;99.90;;;;;;5048855;28;20040;-43
2022/12/25 06:48:59;;;;;;;110.22;33.97;;;7.60;99.90;;;;;;5048350;28;20095;-44
2022/12/25 06:51:28;;;;;;;110.68;31.80;;;8.40;99.90;;;;;;5048783;28;20094;-43
2022/12/25 06:53:55;;;;;;;130.77;35.53;;;7.90;99.90;;;;;;5048405;28;20048;-45
2022/12/25 06:56:23;;;;;;;113.32;33.22;;;7.70;99.90;;;;;;5048493;28;20068;-43
2022/12/25 06:58:55;;;;;;;124.25;34.25;;;8.00;99.90;;;;;;5048687;28;20124;-43
2022/12/25 07:01:29;;;;;;;156.35;36.10;;;8.20;99.90;;;;;;5048607;28;20040;-46
2022/12/25 07:04:00;;;;;;;118.22;33.05;;;7.70;99.90;;;;;;5048407;28;20060;-43
2022/12/25 07:06:26;;;;;;;165.30;38.63;;;7.80;99.90;;;;;;5048301;28;20045;-43
2022/12/25 07:08:53;;;;;;;112.45;34.10;;;7.80;99.90;;;;;;5048252;28;20076;-43
2022/12/25 07:11:19;;;;;;;102.18;31.25;;;7.80;99.90;;;;;;5048522;28;20908;-44
2022/12/25 07:13:45;;;;;;;121.47;34.35;;;8.00;99.90;;;;;;5048037;28;20061;-45
2022/12/25 07:16:12;;;;;;;171.15;37.63;;;7.90;99.90;;;;;;5047929;28;20045;-43
2022/12/25 07:18:38;;;;;;;107.10;30.98;;;7.80;99.90;;;;;;5048061;28;20051;-44
2022/12/25 07:21:08;;;;;;;108.97;30.52;;;7.80;99.90;;;;;;5047152;28;20529;-43
2022/12/25 07:23:34;;;;;;;104.25;30.83;;;7.80;99.90;;;;;;5047880;28;20045;-44
2022/12/25 07:26:00;;;;;;;91.60;29.65;;;7.80;99.90;;;;;;5047938;28;20037;-43
2022/12/25 07:28:27;;;;;;;132.35;33.63;;;8.10;99.90;;;;;;5047469;28;20033;-43
2022/12/25 07:30:52;;;;;;;96.78;30.90;;;8.10;99.90;;;;;;5047845;28;20052;-44
2022/12/25 07:33:18;;;;;;;130.93;34.35;;;7.80;99.90;;;;;;5048292;28;20122;-43
2022/12/25 07:35:44;;;;;;;130.35;33.58;;;8.60;99.90;;;;;;5047789;28;20368;-44
2022/12/25 07:38:10;;;;;;;104.47;32.00;;;7.80;99.90;;;;;;5047757;28;20124;-44
2022/12/25 07:40:36;;;;;;;98.28;28.33;;;7.70;99.90;;;;;;5047600;28;20053;-44
2022/12/25 07:43:02;;;;;;;95.90;28.73;;;7.50;99.90;;;;;;5047280;28;20483;-43
2022/12/25 07:45:27;;;;;;;90.65;28.40;;;7.70;99.90;;;;;;5047657;28;20078;-43
2022/12/25 07:47:53;;;;;;;68.78;25.27;;;8.40;99.90;;;;;;5047241;28;20048;-43
2022/12/25 07:50:19;;;;;;;102.72;30.33;;;7.70;99.90;;;;;;5047638;28;20052;-42
2022/12/25 07:52:45;;;;;;;81.15;27.20;;;7.80;99.90;;;;;;5047064;28;20053;-43
2022/12/25 07:55:12;;;;;;;93.65;29.27;;;7.80;99.90;;;;;;5047282;28;20052;-42
2022/12/25 07:57:38;;;;;;;84.07;27.80;;;7.80;99.90;;;;;;5047552;28;20048;-43
2022/12/25 08:00:05;;;;;;;75.78;27.23;;;8.10;99.90;;;;;;5045968;28;20048;-42
2022/12/25 08:02:30;;;;;;;86.50;27.52;;;7.80;99.90;;;;;;5047081;28;20136;-45
2022/12/25 08:04:56;;;;;;;77.95;26.33;;;7.80;99.90;;;;;;5046511;28;20250;-44
2022/12/25 08:07:22;;;;;;;67.72;24.05;;;7.80;99.90;;;;;;5046658;28;20927;-44
2022/12/25 08:09:48;;;;;;;89.10;25.83;;;7.80;99.90;;;;;;5046780;28;20065;-43
2022/12/25 08:12:14;;;;;;;65.03;23.50;;;7.90;99.90;;;;;;5046856;28;20079;-43
2022/12/25 08:14:40;;;;;;;69.22;23.73;;;8.00;99.90;;;;;;5046783;28;20044;-44
2022/12/25 08:17:06;;;;;;;70.43;23.55;;;10.10;99.90;;;;;;5046423;28;20051;-43
2022/12/25 08:19:31;;;;;;;61.70;23.00;;;7.80;99.90;;;;;;5047200;28;20411;-43
2022/12/25 08:21:57;;;;;;;56.03;20.65;;;7.80;99.90;;;;;;5046967;28;20045;-43
2022/12/25 08:24:23;;;;;;;64.78;20.52;;;7.70;99.90;;;;;;5046495;28;20120;-43
2022/12/25 08:26:49;;;;;;;55.00;20.75;;;7.80;99.90;;;;;;5047142;28;20037;-43
2022/12/25 08:29:15;;;;;;;43.72;19.92;;;7.60;99.90;;;;;;5046689;28;20041;-43
2022/12/25 08:31:42;;;;;;;49.50;20.10;;;7.90;99.90;;;;;;5046824;28;20037;-43
2022/12/25 08:34:08;;;;;;;46.85;18.23;;;8.40;99.90;;;;;;5046125;28;20076;-44
2022/12/25 08:36:34;;;;;;;54.38;18.98;;;7.80;99.90;;;;;;5046474;28;20558;-44
2022/12/25 08:39:00;;;;;;;48.80;19.77;;;7.90;99.90;;;;;;5046695;28;20033;-44
2022/12/25 08:41:26;;;;;;;41.20;17.90;;;7.90;99.90;;;;;;5046615;28;20045;-43
2022/12/25 08:43:52;;;;;;;47.58;17.70;;;7.90;99.90;;;;;;5046874;28;20053;-43
2022/12/25 08:46:18;;;;;;;48.22;17.80;;;8.20;99.90;;;;;;5046337;28;20037;-44
2022/12/25 08:48:47;;;;;;;43.13;16.95;;;7.90;99.90;;;;;;5046672;28;20052;-44
2022/12/25 08:51:19;;;;;;;44.65;16.60;;;7.80;99.90;;;;;;5046390;28;20041;-44
2022/12/25 08:53:46;;;;;;;51.47;17.10;;;7.90;99.90;;;;;;5046799;28;20059;-43
2022/12/25 08:56:13;;;;;;;44.15;17.60;;;7.70;99.90;;;;;;5046503;28;20055;-43
2022/12/25 08:58:38;;;;;;;42.50;17.83;;;8.30;99.90;;;;;;5047251;28;20056;-44
2022/12/25 09:01:06;;;;;;;38.55;15.70;;;7.80;99.90;;;;;;5046173;28;20045;-43
2022/12/25 09:03:32;;;;;;;42.08;16.40;;;7.90;99.90;;;;;;5046490;28;20045;-44
2022/12/25 09:06:10;;;;;;;42.05;16.65;;;7.80;99.90;;;;;;5046607;28;20124;-44
2022/12/25 09:08:37;;;;;;;39.92;15.77;;;7.90;99.90;;;;;;5045945;28;20482;-42
2022/12/25 09:11:07;;;;;;;39.28;15.15;;;7.90;99.90;;;;;;5045780;28;20498;-44
2022/12/25 09:13:32;;;;;;;40.90;14.82;;;7.90;99.90;;;;;;5046434;28;20053;-44
2022/12/25 09:15:58;;;;;;;41.15;14.80;;;7.90;99.90;;;;;;5046613;28;20048;-44
2022/12/25 09:18:24;;;;;;;33.97;15.02;;;7.90;99.90;;;;;;5046225;28;20067;-43
2022/12/25 09:21:04;;;;;;;43.13;15.27;;;8.20;99.90;;;;;;5046477;28;20087;-44
2022/12/25 09:23:30;;;;;;;30.10;13.15;;;7.90;99.90;;;;;;5028528;28;20049;-43
2022/12/25 09:26:00;;;;;;;37.90;14.20;;;7.90;99.90;;;;;;5046531;28;20029;-43
2022/12/25 09:28:27;;;;;;;39.85;14.65;;;7.90;99.90;;;;;;5046370;28;20036;-43
2022/12/25 09:30:53;;;;;;;39.65;14.20;;;8.20;99.90;;;;;;5046863;28;20048;-43
2022/12/25 09:33:20;;;;;;;42.65;17.02;;;8.00;99.90;;;;;;5046614;28;20045;-44
2022/12/25 09:35:56;;;;;;;33.70;13.90;;;8.60;99.90;;;;;;5045948;28;20636;-44
2022/12/25 09:38:23;;;;;;;30.25;14.02;;;8.00;99.90;;;;;;5049326;28;20052;-43
2022/12/25 09:40:58;;;;;;;31.67;13.02;;;7.90;99.90;;;;;;5049505;28;20047;-44
2022/12/25 09:43:26;;;;;;;37.38;13.82;;;7.90;99.90;;;;;;5049251;28;20043;-43
2022/12/25 09:45:52;;;;;;;32.03;13.52;;;7.90;99.90;;;;;;5049408;28;20110;-44
2022/12/25 09:48:18;;;;;;;36.75;12.90;;;8.80;99.90;;;;;;5049242;28;20638;-44
2022/12/25 09:50:51;;;;;;;30.38;14.07;;;8.00;99.90;;;;;;5049843;28;20044;-44
2022/12/25 09:53:23;;;;;;;35.80;13.55;;;8.40;99.90;;;;;;5049197;28;20140;-45
2022/12/25 09:56:02;;;;;;;36.47;13.48;;;8.10;99.90;;;;;;5049315;28;20049;-44
2022/12/25 09:58:29;;;;;;;28.88;12.70;;;8.10;99.90;;;;;;5049147;28;20047;-43
2022/12/25 10:01:13;;;;;;;31.70;13.57;;;8.30;99.90;;;;;;5049308;28;20041;-42
2022/12/25 10:04:12;;;;;;;37.40;13.90;;;8.20;99.90;;;;;;5049325;28;20071;-43
2022/12/25 10:06:59;;;;;;;30.63;12.27;;;8.30;99.90;;;;;;5048747;28;20053;-44
2022/12/25 10:09:24;;;;;;;36.10;14.75;;;8.20;99.90;;;;;;5048678;28;20144;-43
2022/12/25 10:11:59;;;;;;;41.83;16.83;;;8.60;99.90;;;;;;5049210;28;20131;-44
2022/12/25 10:14:58;;;;;;;34.08;14.55;;;8.30;99.90;;;;;;5049252;28;20052;-43
2022/12/25 10:17:48;;;;;;;38.20;16.65;;;8.30;99.90;;;;;;5030826;28;20128;-43
2022/12/25 10:20:33;;;;;;;36.42;14.75;;;8.40;99.90;;;;;;5048579;28;20060;-43
2022/12/25 10:23:02;;;;;;;49.33;16.63;;;8.40;99.90;;;;;;5048763;28;20044;-43
2022/12/25 10:25:30;;;;;;;33.33;14.88;;;8.50;99.90;;;;;;5048878;28;20076;-44
2022/12/25 10:28:01;;;;;;;31.92;14.73;;;8.40;99.90;;;;;;5049117;28;20052;-44
2022/12/25 10:30:28;;;;;;;31.73;14.05;;;8.40;99.90;;;;;;5048984;28;20065;-44
2022/12/25 10:32:56;;;;;;;57.40;18.55;;;8.50;99.90;;;;;;5049017;28;20053;-40
2022/12/25 10:35:25;;;;;;;36.60;15.85;;;8.40;99.90;;;;;;5048414;28;20121;-57
2022/12/25 10:37:59;;;;;;;41.75;16.67;;;8.30;99.90;;;;;;5048673;28;20072;-57
2022/12/25 10:40:51;;;;;;;38.75;16.65;;;8.40;99.90;;;;;;5048370;28;20040;-57
2022/12/25 10:43:23;;;;;;;45.40;16.92;;;9.30;99.90;;;;;;5048608;28;20486;-57
2022/12/25 10:45:49;;;;;;;46.25;17.50;;;8.40;99.90;;;;;;5048745;28;20091;-57
2022/12/25 10:48:27;;;;;;;38.28;16.25;;;8.80;99.90;;;;;;5048340;28;20072;-56
2022/12/25 10:50:54;;;;;;;40.78;15.98;;;8.50;99.90;;;;;;5048546;28;20048;-41
2022/12/25 10:53:23;;;;;;;49.97;17.85;;;8.50;99.90;;;;;;5048255;28;20048;-40
2022/12/25 10:55:58;;;;;;;38.25;15.70;;;8.50;99.90;;;;;;5045780;28;20045;-44
2022/12/25 10:58:24;;;;;;;44.60;16.92;;;8.50;99.90;;;;;;5044438;28;20076;-50
2022/12/25 11:00:52;;;;;;;42.78;16.38;;;8.50;99.90;;;;;;5046619;28;20810;-51
2022/12/25 11:03:25;;;;;;;52.60;18.15;;;8.50;99.90;;;;;;5045935;28;20069;-49
2022/12/25 11:05:51;;;;;;;31.83;15.73;;;8.60;99.90;;;;;;5046102;28;20502;-52
2022/12/25 11:08:23;;;;;;;40.00;16.30;;;8.60;99.90;;;;;;5047460;28;20053;-53
2022/12/25 11:10:58;;;;;;;42.17;18.48;;;8.60;99.90;;;;;;5047309;28;20037;-52
2022/12/25 11:13:27;;;;;;;41.00;16.38;;;8.80;99.90;;;;;;5047271;28;20048;-54
2022/12/25 11:16:29;;;;;;;36.20;15.38;;;8.70;99.90;;;;;;5047581;28;20084;-47
2022/12/25 11:18:58;;;;;;;38.92;16.77;;;8.80;99.90;;;;;;5046361;28;20084;-62
2022/12/25 11:21:33;;;;;;;33.13;15.27;;;8.80;99.90;;;;;;5045955;28;20443;-58
2022/12/25 11:24:01;;;;;;;44.38;19.02;;;8.90;99.90;;;;;;5047242;28;20044;-62
2022/12/25 11:26:34;;;;;;;44.83;17.20;;;8.90;99.90;;;;;;5046628;28;20124;-62
2022/12/25 11:29:00;;;;;;;31.00;13.70;;;8.90;99.90;;;;;;5043748;28;20683;-48
2022/12/25 11:31:39;;;;;;;31.33;14.48;;;9.40;99.90;;;;;;5046515;28;20048;-49
2022/12/25 11:34:27;;;;;;;31.63;15.27;;;8.90;99.90;;;;;;5047035;28;20055;-51
2022/12/25 11:36:53;;;;;;;30.17;15.50;;;9.00;99.90;;;;;;5042774;28;20060;-57
2022/12/25 11:39:33;;;;;;;28.88;14.52;;;9.10;99.90;;;;;;5047680;28;20407;-57
2022/12/25 11:42:21;;;;;;;36.00;15.88;;;9.10;99.90;;;;;;5046920;28;20033;-52
2022/12/25 11:44:53;;;;;;;35.67;15.70;;;9.20;99.90;;;;;;5047377;28;20047;-61
2022/12/25 11:47:40;;;;;;;30.10;14.43;;;9.30;99.90;;;;;;5045946;28;20127;-62
2022/12/25 11:50:13;;;;;;;34.42;16.73;;;9.30;99.90;;;;;;5047038;28;20051;-60
2022/12/25 11:52:43;;;;;;;42.83;16.65;;;9.30;99.90;;;;;;5044953;28;20764;-57
2022/12/25 11:55:25;;;;;;;36.33;15.05;;;9.20;99.90;;;;;;5046159;28;20827;-58
2022/12/25 11:57:55;;;;;;;47.90;16.33;;;9.30;99.90;;;;;;5047611;28;20040;-60
2022/12/25 12:00:22;;;;;;;29.33;13.60;;;9.30;99.90;;;;;;5030383;28;20491;-59
2022/12/25 12:02:52;;;;;;;26.45;13.25;;;9.30;99.90;;;;;;5049920;28;20045;-57
2022/12/25 12:06:03;;;;;;;24.13;12.30;;;9.40;99.90;;;;;;5052065;28;20052;-58
2022/12/25 12:08:31;;;;;;;30.95;13.15;;;9.30;99.90;;;;;;5050897;28;20147;-58
2022/12/25 12:11:14;;;;;;;23.35;12.40;;;9.30;99.90;;;;;;5050726;28;20049;-57
2022/12/25 12:13:43;;;;;;;33.00;14.35;;;9.30;99.90;;;;;;5047820;28;20055;-58
2022/12/25 12:16:09;;;;;;;27.10;13.48;;;9.30;99.90;;;;;;5049440;28;20052;-56
2022/12/25 12:18:35;;;;;;;25.92;13.10;;;9.20;99.90;;;;;;5047093;28;20037;-52
2022/12/25 12:21:20;;;;;;;31.05;13.45;;;9.20;99.90;;;;;;5047179;28;20045;-57
2022/12/25 12:24:02;;;;;;;30.50;14.18;;;9.20;99.90;;;;;;5046474;28;20044;-52
2022/12/25 12:26:30;;;;;;;26.60;12.82;;;9.20;99.90;;;;;;5046508;28;20081;-55
2022/12/25 12:29:00;;;;;;;23.55;10.93;;;9.20;99.90;;;;;;5046942;28;20542;-48
2022/12/25 12:31:48;;;;;;;28.63;12.35;;;9.10;99.90;;;;;;5046284;28;20132;-55
2022/12/25 12:34:46;;;;;;;22.52;10.57;;;9.40;99.90;;;;;;5046588;28;20048;-55
2022/12/25 12:37:21;;;;;;;20.98;10.63;;;9.10;99.90;;;;;;5045268;28;20134;-56
2022/12/25 12:39:52;;;;;;;23.38;11.80;;;9.40;99.90;;;;;;5046002;28;20119;-51
2022/12/25 12:42:24;;;;;;;33.53;14.27;;;9.10;99.90;;;;;;5046744;28;20160;-49
2022/12/25 12:44:51;;;;;;;;;;;9.10;99.90;;;;;;5046071;28;20041;-51
2022/12/25 12:47:37;;;;;;;24.08;12.73;;;9.00;99.90;;;;;;5045904;28;20378;-50
2022/12/25 12:50:03;;;;;;;43.53;14.98;;;9.40;99.90;;;;;;5046103;28;20053;-50
2022/12/25 12:52:39;;;;;;;25.90;13.10;;;9.00;99.90;;;;;;5047947;28;20144;-49
2022/12/25 12:55:08;;;;;;;30.15;13.82;;;9.00;99.90;;;;;;5047492;28;20525;-57
2022/12/25 12:57:38;;;;;;;29.30;14.20;;;9.00;99.90;;;;;;5047402;28;20094;-48
2022/12/25 13:00:18;;;;;;;35.17;14.15;;;9.00;99.90;;;;;;5047712;28;20099;-51
2022/12/25 13:02:56;;;;;;;30.13;13.98;;;9.00;99.90;;;;;;5048289;28;20049;-57
2022/12/25 13:05:46;;;;;;;32.22;14.88;;;9.00;99.90;;;;;;5048708;28;20041;-51
2022/12/25 13:08:42;;;;;;;36.13;16.60;;;8.90;99.90;;;;;;5047811;28;20071;-56
2022/12/25 13:11:19;;;;;;;36.78;16.73;;;9.00;99.90;;;;;;5051402;28;20130;-55
2022/12/25 13:13:47;;;;;;;32.47;15.75;;;8.90;99.90;;;;;;5052567;28;20489;-55
2022/12/25 13:16:32;;;;;;;36.00;17.02;;;9.00;99.90;;;;;;5052260;28;20059;-52
2022/12/25 13:19:03;;;;;;;31.67;16.25;;;8.80;99.90;;;;;;5052139;28;20044;-51
2022/12/25 13:21:30;;;;;;;33.80;15.93;;;9.20;99.90;;;;;;5051403;28;20056;-54
2022/12/25 13:23:59;;;;;;;45.25;17.42;;;8.70;99.90;;;;;;5050543;28;20041;-48
2022/12/25 13:26:26;;;;;;;44.83;18.40;;;8.80;99.90;;;;;;5050417;28;20491;-45
2022/12/25 13:28:54;;;;;;;43.42;17.98;;;8.80;99.90;;;;;;5050840;28;20056;-47
2022/12/25 13:31:39;;;;;;;42.33;16.80;;;8.70;99.90;;;;;;5051347;28;20060;-53
2022/12/25 13:34:30;;;;;;;36.08;17.70;;;8.80;99.90;;;;;;5051104;28;20080;-54
2022/12/25 13:36:58;;;;;;;37.58;15.85;;;8.70;99.90;;;;;;5050613;28;20090;-54
2022/12/25 13:39:25;;;;;;;45.88;18.63;;;8.70;99.90;;;;;;5050358;28;20427;-48
2022/12/25 13:42:25;;;;;;;34.08;16.80;;;8.70;99.90;;;;;;5050732;28;20037;-47
2022/12/25 13:44:45;;;;;;;50.25;18.58;;;8.90;99.90;;;;;;5047444;28;20166;-47
2022/12/25 13:47:25;;;;;;;32.92;15.00;;;8.60;99.90;;;;;;5016703;28;20052;-46
2022/12/25 13:49:54;;;;;;;39.67;16.73;;;8.60;99.90;;;;;;5046933;28;20040;-47
2022/12/25 13:52:34;;;;;;;33.80;14.88;;;8.50;99.90;;;;;;5047096;28;20509;-51
2022/12/25 13:55:15;;;;;;;38.63;15.55;;;8.50;99.90;;;;;;5046747;28;20048;-47
2022/12/25 13:57:46;;;;;;;85.70;22.90;;;8.50;99.90;;;;;;5047019;28;20120;-47
2022/12/25 14:00:24;;;;;;;31.42;14.45;;;8.70;99.90;;;;;;5047484;28;20049;-48
2022/12/25 14:02:50;;;;;;;35.05;14.75;;;8.40;99.90;;;;;;5047376;28;20037;-45
2022/12/25 14:05:25;;;;;;;41.58;17.02;;;8.40;99.90;;;;;;5046615;28;20786;-45
2022/12/25 14:07:52;;;;;;;34.55;15.75;;;8.30;99.90;;;;;;5045033;28;20045;-47
2022/12/25 14:10:19;;;;;;;35.00;14.77;;;8.30;99.90;;;;;;5047052;28;20457;-48
2022/12/25 14:12:48;;;;;;;73.55;19.15;;;8.40;99.90;;;;;;5045677;28;20041;-46
2022/12/25 14:15:19;;;;;;;35.97;16.13;;;8.30;99.90;;;;;;5045502;28;20095;-49
2022/12/25 14:17:45;;;;;;;46.53;17.52;;;8.30;99.90;;;;;;5045323;28;20049;-50
2022/12/25 14:20:28;;;;;;;47.65;18.08;;;8.40;99.90;;;;;;5047248;28;20041;-50
2022/12/25 14:22:57;;;;;;;54.55;18.67;;;8.20;99.90;;;;;;5046193;28;20040;-50
2022/12/25 14:25:29;;;;;;;41.50;17.27;;;8.30;99.90;;;;;;5045580;28;20908;-40
2022/12/25 14:27:55;;;;;;;49.38;18.90;;;8.20;99.90;;;;;;5046066;28;20040;-42
2022/12/25 14:30:25;;;;;;;61.55;20.83;;;8.30;99.90;;;;;;5046460;28;20073;-45
2022/12/25 14:32:53;;;;;;;41.78;19.73;;;8.40;99.90;;;;;;5046168;28;20635;-45